sensor_id;sensor_type;location;lat;lon;timestamp;P1;durP1;ratioP1;P2;durP2;ratioP2
59486;SDS011;45298;54.918;73.504;2022-10-30T00:01:21;27.98;;;9.80;;
59486;SDS011;45298;54.918;73.504;2022-10-30T00:03:53;19.52;;;7.90;;
59486;SDS011;45298;54.918;73.504;2022-10-30T00:06:22;15.95;;;7.50;;
59486;SDS011;45298;54.918;73.504;2022-10-30T00:08:50;18.42;;;7.93;;
59486;SDS011;45298;54.918;73.504;2022-10-30T00:11:19;18.20;;;7.65;;
59486;SDS011;45298;54.918;73.504;2022-10-30T00:13:48;19.30;;;7.82;;
59486;SDS011;45298;54.918;73.504;2022-10-30T00:16:16;19.30;;;8.00;;
59486;SDS011;45298;54.918;73.504;2022-10-30T00:18:45;16.00;;;6.95;;
59486;SDS011;45298;54.918;73.504;2022-10-30T00:21:14;20.45;;;7.82;;
59486;SDS011;45298;54.918;73.504;2022-10-30T00:23:50;18.85;;;8.18;;
59486;SDS011;45298;54.918;73.504;2022-10-30T00:26:20;21.48;;;8.32;;
59486;SDS011;45298;54.918;73.504;2022-10-30T00:28:51;15.95;;;7.43;;
59486;SDS011;45298;54.918;73.504;2022-10-30T00:31:22;18.42;;;7.70;;
59486;SDS011;45298;54.918;73.504;2022-10-30T00:33:51;18.02;;;7.72;;
59486;SDS011;45298;54.918;73.504;2022-10-30T00:36:21;16.13;;;7.75;;
59486;SDS011;45298;54.918;73.504;2022-10-30T00:38:50;17.42;;;7.88;;
59486;SDS011;45298;54.918;73.504;2022-10-30T00:41:20;21.40;;;9.15;;
59486;SDS011;45298;54.918;73.504;2022-10-30T00:43:50;48.20;;;20.85;;
59486;SDS011;45298;54.918;73.504;2022-10-30T00:46:23;57.17;;;22.23;;
59486;SDS011;45298;54.918;73.504;2022-10-30T00:49:09;76.03;;;28.63;;
59486;SDS011;45298;54.918;73.504;2022-10-30T00:51:46;47.08;;;21.90;;
59486;SDS011;45298;54.918;73.504;2022-10-30T00:54:19;60.20;;;27.77;;
59486;SDS011;45298;54.918;73.504;2022-10-30T00:56:50;61.05;;;28.55;;
59486;SDS011;45298;54.918;73.504;2022-10-30T00:59:25;37.05;;;18.65;;
59486;SDS011;45298;54.918;73.504;2022-10-30T01:01:58;25.35;;;10.45;;
59486;SDS011;45298;54.918;73.504;2022-10-30T01:04:30;23.63;;;10.40;;
59486;SDS011;45298;54.918;73.504;2022-10-30T01:07:01;47.88;;;17.85;;
59486;SDS011;45298;54.918;73.504;2022-10-30T01:09:37;20.98;;;8.77;;
59486;SDS011;45298;54.918;73.504;2022-10-30T01:12:07;20.52;;;8.80;;
59486;SDS011;45298;54.918;73.504;2022-10-30T01:14:38;27.58;;;14.05;;
59486;SDS011;45298;54.918;73.504;2022-10-30T01:19:51;25.23;;;10.63;;
59486;SDS011;45298;54.918;73.504;2022-10-30T01:22:29;19.77;;;8.55;;
59486;SDS011;45298;54.918;73.504;2022-10-30T01:33:31;44.83;;;20.77;;
59486;SDS011;45298;54.918;73.504;2022-10-30T01:36:32;96.23;;;38.27;;
59486;SDS011;45298;54.918;73.504;2022-10-30T01:39:13;70.70;;;32.83;;
59486;SDS011;45298;54.918;73.504;2022-10-30T01:41:45;64.60;;;30.45;;
59486;SDS011;45298;54.918;73.504;2022-10-30T01:44:16;55.63;;;27.77;;
59486;SDS011;45298;54.918;73.504;2022-10-30T01:47:07;48.83;;;20.67;;
59486;SDS011;45298;54.918;73.504;2022-10-30T01:50:54;56.25;;;24.92;;
59486;SDS011;45298;54.918;73.504;2022-10-30T01:52:55;67.50;;;26.88;;
59486;SDS011;45298;54.918;73.504;2022-10-30T01:55:35;147.55;;;48.05;;
59486;SDS011;45298;54.918;73.504;2022-10-30T01:58:19;173.95;;;61.10;;
59486;SDS011;45298;54.918;73.504;2022-10-30T02:00:54;187.13;;;69.95;;
59486;SDS011;45298;54.918;73.504;2022-10-30T02:03:25;89.60;;;34.42;;
59486;SDS011;45298;54.918;73.504;2022-10-30T02:05:55;43.42;;;19.27;;
59486;SDS011;45298;54.918;73.504;2022-10-30T02:08:23;68.45;;;30.65;;
59486;SDS011;45298;54.918;73.504;2022-10-30T02:10:53;52.60;;;25.27;;
59486;SDS011;45298;54.918;73.504;2022-10-30T02:13:35;28.85;;;12.75;;
59486;SDS011;45298;54.918;73.504;2022-10-30T02:16:06;22.67;;;10.38;;
59486;SDS011;45298;54.918;73.504;2022-10-30T02:18:36;24.75;;;9.40;;
59486;SDS011;45298;54.918;73.504;2022-10-30T02:21:06;24.67;;;10.60;;
59486;SDS011;45298;54.918;73.504;2022-10-30T02:23:39;21.38;;;9.05;;
59486;SDS011;45298;54.918;73.504;2022-10-30T02:26:08;22.55;;;9.02;;
59486;SDS011;45298;54.918;73.504;2022-10-30T02:28:37;46.95;;;17.77;;
59486;SDS011;45298;54.918;73.504;2022-10-30T02:31:06;94.97;;;31.25;;
59486;SDS011;45298;54.918;73.504;2022-10-30T02:33:34;141.73;;;45.33;;
59486;SDS011;45298;54.918;73.504;2022-10-30T02:36:03;46.10;;;18.15;;
59486;SDS011;45298;54.918;73.504;2022-10-30T02:38:32;57.65;;;24.55;;
59486;SDS011;45298;54.918;73.504;2022-10-30T02:41:01;36.85;;;16.70;;
59486;SDS011;45298;54.918;73.504;2022-10-30T02:43:30;32.35;;;14.95;;
59486;SDS011;45298;54.918;73.504;2022-10-30T02:45:58;29.67;;;12.88;;
59486;SDS011;45298;54.918;73.504;2022-10-30T02:48:29;21.42;;;9.77;;
59486;SDS011;45298;54.918;73.504;2022-10-30T02:51:04;20.60;;;8.88;;
59486;SDS011;45298;54.918;73.504;2022-10-30T02:53:33;21.52;;;9.30;;
59486;SDS011;45298;54.918;73.504;2022-10-30T02:56:11;19.25;;;8.32;;
59486;SDS011;45298;54.918;73.504;2022-10-30T02:58:42;18.25;;;7.50;;
59486;SDS011;45298;54.918;73.504;2022-10-30T03:01:12;54.08;;;18.02;;
59486;SDS011;45298;54.918;73.504;2022-10-30T03:03:43;19.35;;;7.90;;
59486;SDS011;45298;54.918;73.504;2022-10-30T03:06:14;18.25;;;8.07;;
59486;SDS011;45298;54.918;73.504;2022-10-30T03:08:43;25.27;;;10.55;;
59486;SDS011;45298;54.918;73.504;2022-10-30T03:11:13;35.80;;;13.30;;
59486;SDS011;45298;54.918;73.504;2022-10-30T03:13:45;14.52;;;6.75;;
59486;SDS011;45298;54.918;73.504;2022-10-30T03:16:20;15.75;;;6.60;;
59486;SDS011;45298;54.918;73.504;2022-10-30T03:18:50;16.13;;;7.32;;
59486;SDS011;45298;54.918;73.504;2022-10-30T03:21:20;22.48;;;9.65;;
59486;SDS011;45298;54.918;73.504;2022-10-30T03:23:50;18.70;;;8.27;;
59486;SDS011;45298;54.918;73.504;2022-10-30T03:26:20;16.35;;;7.63;;
59486;SDS011;45298;54.918;73.504;2022-10-30T03:29:02;80.43;;;31.35;;
59486;SDS011;45298;54.918;73.504;2022-10-30T03:31:31;38.13;;;16.63;;
59486;SDS011;45298;54.918;73.504;2022-10-30T03:34:13;25.45;;;10.98;;
59486;SDS011;45298;54.918;73.504;2022-10-30T03:36:42;18.85;;;8.75;;
59486;SDS011;45298;54.918;73.504;2022-10-30T03:39:12;21.73;;;9.02;;
59486;SDS011;45298;54.918;73.504;2022-10-30T03:41:43;22.00;;;9.15;;
59486;SDS011;45298;54.918;73.504;2022-10-30T03:44:12;16.05;;;7.53;;
59486;SDS011;45298;54.918;73.504;2022-10-30T03:46:41;21.30;;;10.10;;
59486;SDS011;45298;54.918;73.504;2022-10-30T03:49:23;20.95;;;8.27;;
59486;SDS011;45298;54.918;73.504;2022-10-30T03:51:53;17.92;;;8.55;;
59486;SDS011;45298;54.918;73.504;2022-10-30T03:54:24;23.35;;;10.32;;
59486;SDS011;45298;54.918;73.504;2022-10-30T03:56:53;14.90;;;7.20;;
59486;SDS011;45298;54.918;73.504;2022-10-30T03:59:24;13.15;;;5.63;;
59486;SDS011;45298;54.918;73.504;2022-10-30T04:02:13;15.40;;;6.93;;
59486;SDS011;45298;54.918;73.504;2022-10-30T04:04:42;27.23;;;12.43;;
59486;SDS011;45298;54.918;73.504;2022-10-30T04:07:13;11.00;;;5.32;;
59486;SDS011;45298;54.918;73.504;2022-10-30T04:09:42;14.75;;;6.68;;
59486;SDS011;45298;54.918;73.504;2022-10-30T04:12:10;15.60;;;7.85;;
59486;SDS011;45298;54.918;73.504;2022-10-30T04:14:39;29.10;;;11.88;;
59486;SDS011;45298;54.918;73.504;2022-10-30T04:17:08;20.35;;;8.55;;
59486;SDS011;45298;54.918;73.504;2022-10-30T04:19:42;16.33;;;8.27;;
59486;SDS011;45298;54.918;73.504;2022-10-30T04:22:10;16.33;;;6.82;;
59486;SDS011;45298;54.918;73.504;2022-10-30T04:24:39;27.80;;;12.98;;
59486;SDS011;45298;54.918;73.504;2022-10-30T04:27:08;18.83;;;8.90;;
59486;SDS011;45298;54.918;73.504;2022-10-30T04:29:37;32.65;;;14.80;;
59486;SDS011;45298;54.918;73.504;2022-10-30T04:32:06;18.35;;;8.48;;
59486;SDS011;45298;54.918;73.504;2022-10-30T04:34:36;23.13;;;10.15;;
59486;SDS011;45298;54.918;73.504;2022-10-30T04:37:06;20.50;;;8.95;;
59486;SDS011;45298;54.918;73.504;2022-10-30T04:39:35;24.45;;;11.32;;
59486;SDS011;45298;54.918;73.504;2022-10-30T04:42:16;23.52;;;8.63;;
59486;SDS011;45298;54.918;73.504;2022-10-30T04:44:45;27.33;;;13.20;;
59486;SDS011;45298;54.918;73.504;2022-10-30T04:47:14;34.53;;;15.80;;
59486;SDS011;45298;54.918;73.504;2022-10-30T04:49:44;22.90;;;10.40;;
59486;SDS011;45298;54.918;73.504;2022-10-30T04:52:13;46.28;;;16.42;;
59486;SDS011;45298;54.918;73.504;2022-10-30T04:54:41;29.05;;;13.70;;
59486;SDS011;45298;54.918;73.504;2022-10-30T04:57:11;33.35;;;15.10;;
59486;SDS011;45298;54.918;73.504;2022-10-30T04:59:42;15.63;;;6.60;;
59486;SDS011;45298;54.918;73.504;2022-10-30T05:02:11;20.60;;;9.55;;
59486;SDS011;45298;54.918;73.504;2022-10-30T05:04:40;17.63;;;8.77;;
59486;SDS011;45298;54.918;73.504;2022-10-30T05:07:09;21.50;;;10.60;;
59486;SDS011;45298;54.918;73.504;2022-10-30T05:09:38;22.92;;;11.15;;
59486;SDS011;45298;54.918;73.504;2022-10-30T05:12:07;53.55;;;22.23;;
59486;SDS011;45298;54.918;73.504;2022-10-30T05:14:47;17.08;;;8.45;;
59486;SDS011;45298;54.918;73.504;2022-10-30T05:17:17;23.92;;;10.02;;
59486;SDS011;45298;54.918;73.504;2022-10-30T05:19:47;44.28;;;20.23;;
59486;SDS011;45298;54.918;73.504;2022-10-30T05:22:17;22.40;;;9.23;;
59486;SDS011;45298;54.918;73.504;2022-10-30T05:24:46;15.20;;;7.72;;
59486;SDS011;45298;54.918;73.504;2022-10-30T05:27:15;42.65;;;17.90;;
59486;SDS011;45298;54.918;73.504;2022-10-30T05:29:44;17.20;;;8.82;;
59486;SDS011;45298;54.918;73.504;2022-10-30T05:32:14;15.57;;;7.93;;
59486;SDS011;45298;54.918;73.504;2022-10-30T05:34:46;16.27;;;7.65;;
59486;SDS011;45298;54.918;73.504;2022-10-30T05:37:19;16.05;;;7.55;;
59486;SDS011;45298;54.918;73.504;2022-10-30T05:39:48;19.30;;;9.18;;
59486;SDS011;45298;54.918;73.504;2022-10-30T05:42:24;14.65;;;6.80;;
59486;SDS011;45298;54.918;73.504;2022-10-30T05:44:55;13.32;;;6.05;;
59486;SDS011;45298;54.918;73.504;2022-10-30T05:47:32;18.15;;;7.80;;
59486;SDS011;45298;54.918;73.504;2022-10-30T05:50:01;14.55;;;7.45;;
59486;SDS011;45298;54.918;73.504;2022-10-30T05:52:31;20.50;;;9.43;;
59486;SDS011;45298;54.918;73.504;2022-10-30T05:55:01;19.15;;;9.32;;
59486;SDS011;45298;54.918;73.504;2022-10-30T05:57:45;20.33;;;9.85;;
59486;SDS011;45298;54.918;73.504;2022-10-30T06:00:14;14.60;;;6.50;;
59486;SDS011;45298;54.918;73.504;2022-10-30T06:02:44;47.97;;;20.23;;
59486;SDS011;45298;54.918;73.504;2022-10-30T06:05:15;14.35;;;6.57;;
59486;SDS011;45298;54.918;73.504;2022-10-30T06:07:47;13.48;;;7.00;;
59486;SDS011;45298;54.918;73.504;2022-10-30T06:10:15;21.20;;;10.18;;
59486;SDS011;45298;54.918;73.504;2022-10-30T06:13:05;19.02;;;9.15;;
59486;SDS011;45298;54.918;73.504;2022-10-30T06:15:39;11.27;;;6.50;;
59486;SDS011;45298;54.918;73.504;2022-10-30T06:18:09;12.30;;;5.68;;
59486;SDS011;45298;54.918;73.504;2022-10-30T06:23:30;10.70;;;5.93;;
59486;SDS011;45298;54.918;73.504;2022-10-30T06:26:23;16.52;;;6.50;;
59486;SDS011;45298;54.918;73.504;2022-10-30T06:28:56;11.50;;;6.47;;
59486;SDS011;45298;54.918;73.504;2022-10-30T06:31:24;27.38;;;13.10;;
59486;SDS011;45298;54.918;73.504;2022-10-30T06:33:53;20.75;;;9.43;;
59486;SDS011;45298;54.918;73.504;2022-10-30T06:36:22;24.08;;;12.10;;
59486;SDS011;45298;54.918;73.504;2022-10-30T06:38:52;14.32;;;7.45;;
59486;SDS011;45298;54.918;73.504;2022-10-30T06:41:24;10.70;;;5.20;;
59486;SDS011;45298;54.918;73.504;2022-10-30T06:44:16;18.65;;;9.10;;
59486;SDS011;45298;54.918;73.504;2022-10-30T06:46:46;12.30;;;4.95;;
59486;SDS011;45298;54.918;73.504;2022-10-30T06:49:16;15.95;;;7.47;;
59486;SDS011;45298;54.918;73.504;2022-10-30T06:51:45;11.80;;;5.93;;
59486;SDS011;45298;54.918;73.504;2022-10-30T06:54:19;16.98;;;8.77;;
59486;SDS011;45298;54.918;73.504;2022-10-30T06:57:16;12.07;;;5.57;;
59486;SDS011;45298;54.918;73.504;2022-10-30T07:00:04;9.82;;;5.35;;
59486;SDS011;45298;54.918;73.504;2022-10-30T07:02:57;26.98;;;11.52;;
59486;SDS011;45298;54.918;73.504;2022-10-30T07:05:28;14.70;;;7.30;;
59486;SDS011;45298;54.918;73.504;2022-10-30T07:07:57;11.60;;;5.97;;
59486;SDS011;45298;54.918;73.504;2022-10-30T07:10:25;11.80;;;6.10;;
59486;SDS011;45298;54.918;73.504;2022-10-30T07:13:17;12.60;;;6.53;;
59486;SDS011;45298;54.918;73.504;2022-10-30T07:16:04;30.65;;;13.98;;
59486;SDS011;45298;54.918;73.504;2022-10-30T07:18:36;14.13;;;7.65;;
59486;SDS011;45298;54.918;73.504;2022-10-30T07:21:06;15.15;;;6.15;;
59486;SDS011;45298;54.918;73.504;2022-10-30T07:23:35;14.73;;;6.60;;
59486;SDS011;45298;54.918;73.504;2022-10-30T07:26:16;13.10;;;6.50;;
59486;SDS011;45298;54.918;73.504;2022-10-30T07:28:45;11.10;;;6.10;;
59486;SDS011;45298;54.918;73.504;2022-10-30T07:31:19;16.92;;;8.07;;
59486;SDS011;45298;54.918;73.504;2022-10-30T07:34:34;17.95;;;8.93;;
59486;SDS011;45298;54.918;73.504;2022-10-30T07:37:22;14.18;;;7.20;;
59486;SDS011;45298;54.918;73.504;2022-10-30T07:40:05;15.38;;;7.80;;
59486;SDS011;45298;54.918;73.504;2022-10-30T07:42:54;12.70;;;6.65;;
59486;SDS011;45298;54.918;73.504;2022-10-30T07:45:59;13.95;;;7.07;;
59486;SDS011;45298;54.918;73.504;2022-10-30T07:48:28;12.90;;;7.30;;
59486;SDS011;45298;54.918;73.504;2022-10-30T07:51:06;11.20;;;5.28;;
59486;SDS011;45298;54.918;73.504;2022-10-30T07:53:36;16.92;;;8.80;;
59486;SDS011;45298;54.918;73.504;2022-10-30T07:56:06;12.38;;;5.72;;
59486;SDS011;45298;54.918;73.504;2022-10-30T07:58:53;14.10;;;7.38;;
59486;SDS011;45298;54.918;73.504;2022-10-30T08:01:41;11.75;;;6.10;;
59486;SDS011;45298;54.918;73.504;2022-10-30T08:04:32;12.32;;;5.72;;
59486;SDS011;45298;54.918;73.504;2022-10-30T08:07:18;11.05;;;5.60;;
59486;SDS011;45298;54.918;73.504;2022-10-30T08:09:47;12.70;;;6.60;;
59486;SDS011;45298;54.918;73.504;2022-10-30T08:12:17;9.43;;;5.40;;
59486;SDS011;45298;54.918;73.504;2022-10-30T08:14:46;11.95;;;5.10;;
59486;SDS011;45298;54.918;73.504;2022-10-30T08:17:15;12.00;;;5.80;;
59486;SDS011;45298;54.918;73.504;2022-10-30T08:19:44;10.80;;;5.90;;
59486;SDS011;45298;54.918;73.504;2022-10-30T08:22:13;17.60;;;8.85;;
59486;SDS011;45298;54.918;73.504;2022-10-30T08:24:46;10.65;;;6.10;;
59486;SDS011;45298;54.918;73.504;2022-10-30T08:27:17;11.02;;;5.75;;
59486;SDS011;45298;54.918;73.504;2022-10-30T08:29:46;10.32;;;5.45;;
59486;SDS011;45298;54.918;73.504;2022-10-30T08:32:16;11.75;;;6.47;;
59486;SDS011;45298;54.918;73.504;2022-10-30T08:35:17;11.75;;;5.72;;
59486;SDS011;45298;54.918;73.504;2022-10-30T08:37:46;9.38;;;5.40;;
59486;SDS011;45298;54.918;73.504;2022-10-30T08:40:15;11.35;;;5.95;;
59486;SDS011;45298;54.918;73.504;2022-10-30T08:42:56;11.98;;;6.90;;
59486;SDS011;45298;54.918;73.504;2022-10-30T08:45:25;10.38;;;4.57;;
59486;SDS011;45298;54.918;73.504;2022-10-30T08:48:08;10.77;;;5.13;;
59486;SDS011;45298;54.918;73.504;2022-10-30T08:50:40;11.63;;;6.27;;
59486;SDS011;45298;54.918;73.504;2022-10-30T08:53:12;10.80;;;5.70;;
59486;SDS011;45298;54.918;73.504;2022-10-30T08:55:44;10.85;;;6.70;;
59486;SDS011;45298;54.918;73.504;2022-10-30T08:58:28;11.18;;;5.28;;
59486;SDS011;45298;54.918;73.504;2022-10-30T09:00:57;13.80;;;6.93;;
59486;SDS011;45298;54.918;73.504;2022-10-30T09:03:51;11.18;;;6.03;;
59486;SDS011;45298;54.918;73.504;2022-10-30T09:06:46;9.80;;;5.60;;
59486;SDS011;45298;54.918;73.504;2022-10-30T09:09:33;9.50;;;5.25;;
59486;SDS011;45298;54.918;73.504;2022-10-30T09:12:03;11.40;;;5.88;;
59486;SDS011;45298;54.918;73.504;2022-10-30T09:14:40;12.40;;;5.30;;
59486;SDS011;45298;54.918;73.504;2022-10-30T09:17:10;9.90;;;4.97;;
59486;SDS011;45298;54.918;73.504;2022-10-30T09:19:43;8.88;;;5.25;;
59486;SDS011;45298;54.918;73.504;2022-10-30T09:22:17;10.52;;;5.45;;
59486;SDS011;45298;54.918;73.504;2022-10-30T09:24:46;12.10;;;6.10;;
59486;SDS011;45298;54.918;73.504;2022-10-30T09:27:44;14.05;;;6.50;;
59486;SDS011;45298;54.918;73.504;2022-10-30T09:30:15;10.68;;;6.13;;
59486;SDS011;45298;54.918;73.504;2022-10-30T09:32:57;11.73;;;5.97;;
59486;SDS011;45298;54.918;73.504;2022-10-30T09:35:55;10.25;;;5.80;;
59486;SDS011;45298;54.918;73.504;2022-10-30T09:38:24;11.10;;;5.80;;
59486;SDS011;45298;54.918;73.504;2022-10-30T09:41:20;13.30;;;6.25;;
59486;SDS011;45298;54.918;73.504;2022-10-30T09:47:39;10.85;;;4.75;;
59486;SDS011;45298;54.918;73.504;2022-10-30T09:55:56;15.70;;;7.03;;
59486;SDS011;45298;54.918;73.504;2022-10-30T10:04:27;10.57;;;4.35;;
59486;SDS011;45298;54.918;73.504;2022-10-30T10:07:32;18.35;;;7.93;;
59486;SDS011;45298;54.918;73.504;2022-10-30T10:16:18;16.08;;;7.22;;
59486;SDS011;45298;54.918;73.504;2022-10-30T10:19:13;15.30;;;7.13;;
59486;SDS011;45298;54.918;73.504;2022-10-30T10:21:42;19.73;;;6.82;;
59486;SDS011;45298;54.918;73.504;2022-10-30T10:24:15;17.77;;;8.60;;
59486;SDS011;45298;54.918;73.504;2022-10-30T10:26:53;21.73;;;8.57;;
59486;SDS011;45298;54.918;73.504;2022-10-30T10:32:45;18.77;;;8.90;;
59486;SDS011;45298;54.918;73.504;2022-10-30T10:44:14;28.65;;;12.13;;
59486;SDS011;45298;54.918;73.504;2022-10-30T10:52:22;31.58;;;10.57;;
59486;SDS011;45298;54.918;73.504;2022-10-30T10:55:05;37.40;;;12.98;;
59486;SDS011;45298;54.918;73.504;2022-10-30T10:57:43;35.42;;;12.95;;
59486;SDS011;45298;54.918;73.504;2022-10-30T11:00:17;32.95;;;13.23;;
59486;SDS011;45298;54.918;73.504;2022-10-30T11:03:09;40.40;;;16.00;;
59486;SDS011;45298;54.918;73.504;2022-10-30T11:05:53;27.75;;;9.77;;
59486;SDS011;45298;54.918;73.504;2022-10-30T11:08:27;39.97;;;14.27;;
59486;SDS011;45298;54.918;73.504;2022-10-30T11:10:58;48.28;;;15.32;;
59486;SDS011;45298;54.918;73.504;2022-10-30T11:13:30;46.40;;;17.02;;
59486;SDS011;45298;54.918;73.504;2022-10-30T11:16:20;52.10;;;19.55;;
59486;SDS011;45298;54.918;73.504;2022-10-30T11:19:06;60.55;;;23.02;;
59486;SDS011;45298;54.918;73.504;2022-10-30T11:21:41;49.85;;;20.50;;
59486;SDS011;45298;54.918;73.504;2022-10-30T11:24:26;55.10;;;22.10;;
59486;SDS011;45298;54.918;73.504;2022-10-30T11:26:57;65.97;;;26.33;;
59486;SDS011;45298;54.918;73.504;2022-10-30T11:29:53;56.13;;;24.73;;
59486;SDS011;45298;54.918;73.504;2022-10-30T11:32:29;80.97;;;30.25;;
59486;SDS011;45298;54.918;73.504;2022-10-30T11:35:11;111.78;;;42.10;;
59486;SDS011;45298;54.918;73.504;2022-10-30T11:37:41;147.25;;;47.53;;
59486;SDS011;45298;54.918;73.504;2022-10-30T11:45:22;220.00;;;76.07;;
59486;SDS011;45298;54.918;73.504;2022-10-30T11:48:00;211.82;;;65.18;;
59486;SDS011;45298;54.918;73.504;2022-10-30T11:50:40;99.03;;;31.05;;
59486;SDS011;45298;54.918;73.504;2022-10-30T11:53:19;46.03;;;19.98;;
59486;SDS011;45298;54.918;73.504;2022-10-30T11:55:57;32.30;;;16.33;;
59486;SDS011;45298;54.918;73.504;2022-10-30T12:01:03;53.65;;;25.20;;
59486;SDS011;45298;54.918;73.504;2022-10-30T12:03:52;49.03;;;22.52;;
59486;SDS011;45298;54.918;73.504;2022-10-30T12:11:32;17.38;;;7.68;;
59486;SDS011;45298;54.918;73.504;2022-10-30T12:14:03;20.10;;;10.48;;
59486;SDS011;45298;54.918;73.504;2022-10-30T12:16:32;22.27;;;9.48;;
59486;SDS011;45298;54.918;73.504;2022-10-30T12:19:02;14.75;;;7.65;;
59486;SDS011;45298;54.918;73.504;2022-10-30T12:21:45;13.55;;;6.63;;
59486;SDS011;45298;54.918;73.504;2022-10-30T12:24:17;23.30;;;9.20;;
59486;SDS011;45298;54.918;73.504;2022-10-30T12:27:10;24.80;;;10.02;;
59486;SDS011;45298;54.918;73.504;2022-10-30T12:30:01;27.45;;;11.55;;
59486;SDS011;45298;54.918;73.504;2022-10-30T12:35:59;29.83;;;11.27;;
59486;SDS011;45298;54.918;73.504;2022-10-30T12:38:33;27.83;;;11.98;;
59486;SDS011;45298;54.918;73.504;2022-10-30T12:43:58;28.42;;;11.73;;
59486;SDS011;45298;54.918;73.504;2022-10-30T12:46:47;20.45;;;9.35;;
59486;SDS011;45298;54.918;73.504;2022-10-30T12:52:06;16.20;;;7.95;;
59486;SDS011;45298;54.918;73.504;2022-10-30T12:57:32;16.23;;;7.80;;
59486;SDS011;45298;54.918;73.504;2022-10-30T13:00:14;14.32;;;6.63;;
59486;SDS011;45298;54.918;73.504;2022-10-30T13:05:49;11.80;;;6.38;;
59486;SDS011;45298;54.918;73.504;2022-10-30T13:08:33;13.30;;;6.70;;
59486;SDS011;45298;54.918;73.504;2022-10-30T13:13:46;15.10;;;6.78;;
59486;SDS011;45298;54.918;73.504;2022-10-30T13:16:21;14.25;;;7.57;;
59486;SDS011;45298;54.918;73.504;2022-10-30T13:18:59;14.50;;;7.28;;
59486;SDS011;45298;54.918;73.504;2022-10-30T13:22:12;21.08;;;9.02;;
59486;SDS011;45298;54.918;73.504;2022-10-30T13:24:56;31.05;;;13.80;;
59486;SDS011;45298;54.918;73.504;2022-10-30T13:27:35;15.18;;;7.60;;
59486;SDS011;45298;54.918;73.504;2022-10-30T13:30:10;13.05;;;7.03;;
59486;SDS011;45298;54.918;73.504;2022-10-30T13:49:24;14.18;;;7.20;;
59486;SDS011;45298;54.918;73.504;2022-10-30T13:52:10;15.57;;;7.68;;
59486;SDS011;45298;54.918;73.504;2022-10-30T13:57:42;14.93;;;7.93;;
59486;SDS011;45298;54.918;73.504;2022-10-30T14:00:28;19.10;;;9.50;;
59486;SDS011;45298;54.918;73.504;2022-10-30T14:03:29;21.40;;;9.45;;
59486;SDS011;45298;54.918;73.504;2022-10-30T14:06:01;19.52;;;9.93;;
59486;SDS011;45298;54.918;73.504;2022-10-30T14:11:40;16.25;;;8.70;;
59486;SDS011;45298;54.918;73.504;2022-10-30T14:22:40;19.67;;;10.10;;
59486;SDS011;45298;54.918;73.504;2022-10-30T14:25:12;19.05;;;10.07;;
59486;SDS011;45298;54.918;73.504;2022-10-30T14:27:43;22.45;;;11.13;;
59486;SDS011;45298;54.918;73.504;2022-10-30T14:30:23;13.93;;;6.35;;
59486;SDS011;45298;54.918;73.504;2022-10-30T14:32:55;20.75;;;10.20;;
59486;SDS011;45298;54.918;73.504;2022-10-30T14:35:34;24.75;;;11.30;;
59486;SDS011;45298;54.918;73.504;2022-10-30T14:43:58;17.33;;;7.82;;
59486;SDS011;45298;54.918;73.504;2022-10-30T14:46:35;16.77;;;7.68;;
59486;SDS011;45298;54.918;73.504;2022-10-30T14:49:23;16.05;;;7.93;;
59486;SDS011;45298;54.918;73.504;2022-10-30T14:55:14;15.98;;;8.18;;
59486;SDS011;45298;54.918;73.504;2022-10-30T14:58:15;16.85;;;8.05;;
59486;SDS011;45298;54.918;73.504;2022-10-30T15:01:40;15.20;;;7.47;;
59486;SDS011;45298;54.918;73.504;2022-10-30T15:09:15;14.63;;;7.47;;
59486;SDS011;45298;54.918;73.504;2022-10-30T15:14:58;13.20;;;7.30;;
59486;SDS011;45298;54.918;73.504;2022-10-30T15:17:37;13.32;;;7.00;;
59486;SDS011;45298;54.918;73.504;2022-10-30T15:20:25;15.05;;;7.95;;
59486;SDS011;45298;54.918;73.504;2022-10-30T15:23:00;18.00;;;7.50;;
59486;SDS011;45298;54.918;73.504;2022-10-30T15:25:35;15.38;;;8.38;;
59486;SDS011;45298;54.918;73.504;2022-10-30T15:28:11;16.25;;;7.50;;
59486;SDS011;45298;54.918;73.504;2022-10-30T15:31:00;16.27;;;8.63;;
59486;SDS011;45298;54.918;73.504;2022-10-30T15:33:31;16.83;;;8.88;;
59486;SDS011;45298;54.918;73.504;2022-10-30T15:36:04;16.05;;;8.38;;
59486;SDS011;45298;54.918;73.504;2022-10-30T15:38:43;19.20;;;9.30;;
59486;SDS011;45298;54.918;73.504;2022-10-30T15:41:12;23.88;;;10.02;;
59486;SDS011;45298;54.918;73.504;2022-10-30T15:43:41;21.75;;;10.10;;
59486;SDS011;45298;54.918;73.504;2022-10-30T15:46:11;25.20;;;12.73;;
59486;SDS011;45298;54.918;73.504;2022-10-30T15:48:44;28.23;;;12.20;;
59486;SDS011;45298;54.918;73.504;2022-10-30T15:51:15;24.20;;;11.13;;
59486;SDS011;45298;54.918;73.504;2022-10-30T15:53:50;21.25;;;9.27;;
59486;SDS011;45298;54.918;73.504;2022-10-30T15:58:59;23.10;;;10.38;;
59486;SDS011;45298;54.918;73.504;2022-10-30T16:01:45;23.25;;;10.68;;
59486;SDS011;45298;54.918;73.504;2022-10-30T16:04:23;25.00;;;11.35;;
59486;SDS011;45298;54.918;73.504;2022-10-30T16:06:54;26.95;;;11.80;;
59486;SDS011;45298;54.918;73.504;2022-10-30T16:09:25;27.67;;;11.75;;
59486;SDS011;45298;54.918;73.504;2022-10-30T16:11:56;25.45;;;10.35;;
59486;SDS011;45298;54.918;73.504;2022-10-30T16:14:27;25.60;;;12.35;;
59486;SDS011;45298;54.918;73.504;2022-10-30T16:16:59;25.63;;;11.75;;
59486;SDS011;45298;54.918;73.504;2022-10-30T16:19:31;26.00;;;11.43;;
59486;SDS011;45298;54.918;73.504;2022-10-30T16:22:08;29.05;;;12.50;;
59486;SDS011;45298;54.918;73.504;2022-10-30T16:24:48;23.48;;;10.98;;
59486;SDS011;45298;54.918;73.504;2022-10-30T16:27:20;25.50;;;11.20;;
59486;SDS011;45298;54.918;73.504;2022-10-30T16:29:57;25.10;;;9.32;;
59486;SDS011;45298;54.918;73.504;2022-10-30T16:32:28;22.42;;;10.38;;
59486;SDS011;45298;54.918;73.504;2022-10-30T16:34:58;21.17;;;9.73;;
59486;SDS011;45298;54.918;73.504;2022-10-30T16:37:36;25.70;;;11.13;;
59486;SDS011;45298;54.918;73.504;2022-10-30T16:40:12;23.23;;;9.48;;
59486;SDS011;45298;54.918;73.504;2022-10-30T16:42:47;20.65;;;9.35;;
59486;SDS011;45298;54.918;73.504;2022-10-30T16:48:01;20.20;;;8.98;;
59486;SDS011;45298;54.918;73.504;2022-10-30T16:50:44;18.35;;;9.32;;
59486;SDS011;45298;54.918;73.504;2022-10-30T16:53:23;18.73;;;9.27;;
59486;SDS011;45298;54.918;73.504;2022-10-30T16:55:53;21.98;;;9.63;;
59486;SDS011;45298;54.918;73.504;2022-10-30T16:58:28;19.70;;;8.90;;
59486;SDS011;45298;54.918;73.504;2022-10-30T17:01:03;21.88;;;8.75;;
59486;SDS011;45298;54.918;73.504;2022-10-30T17:06:23;20.60;;;8.70;;
59486;SDS011;45298;54.918;73.504;2022-10-30T17:09:05;19.33;;;8.80;;
59486;SDS011;45298;54.918;73.504;2022-10-30T17:12:05;19.90;;;9.02;;
59486;SDS011;45298;54.918;73.504;2022-10-30T17:14:49;20.83;;;9.77;;
59486;SDS011;45298;54.918;73.504;2022-10-30T17:17:29;19.30;;;9.30;;
59486;SDS011;45298;54.918;73.504;2022-10-30T17:22:40;16.80;;;8.23;;
59486;SDS011;45298;54.918;73.504;2022-10-30T17:25:16;21.98;;;10.00;;
59486;SDS011;45298;54.918;73.504;2022-10-30T17:28:06;19.23;;;9.35;;